Wilmington, North Carolina
Current Conditions -  °F | °C
As of 6:53 AM on Sunday 23 Nov 2014 (Local Time) from KILM Reporting Station
Light Rain Light Rain  
Wind Chill: 51°   Ceiling: 10000
Heat Index: 51°   Visibility: 7mi
Dew Point: 50°   Wind: 0mph
Humidity: 96%   Direction: NA
Pressure: 30.25"   Gusts: NA
Location:  34.24°N, 77.94°W
Report Text: KILM 231153Z 00000KT 7SM -RA BKN100 OVC120 11/10 A3025 RMK AO2 SLP241 P0001 60003 70003 T01060100 10111 20072 58002
Loading
Personal Weather Stations






























Interactive Weather Map New forecast layout! Learn more

10-Day Weather Forecast

Advertisements
Track Severe Weather on mobile